Time;durP1;ratioP1;P1;durP2;ratioP2;P2;SDS_P1;SDS_P2;PMS_P1;PMS_P2;Temp;Humidity;BMP_temperature;BMP_pressure;BME280_temperature;BME280_humidity;BME280_pressure;Samples;Min_cycle;Max_cycle;Signal;HPM_P1;HPM_P2
2022/08/11 00:05:12;;;;;;;8.98;5.12;;;;;;;14.17;78.45;99781.78;4239186;83;21990;-83
2022/08/11 00:11:15;;;;;;;8.95;4.55;;;;;;;14.07;78.79;99786.59;4231590;83;21640;-84
2022/08/11 00:17:17;;;;;;;9.03;4.17;;;;;;;14.06;79.49;99791.90;4194229;83;21027;-84
2022/08/11 00:23:19;;;;;;;9.95;5.03;;;;;;;13.94;79.53;99780.56;4226121;83;21599;-84
2022/08/11 00:29:21;;;;;;;8.93;4.53;;;;;;;13.80;79.61;99780.42;4215039;83;21108;-84
2022/08/11 00:35:27;;;;;;;6.35;4.85;;;;;;;13.77;80.37;99787.25;4199179;83;20995;-84
2022/08/11 00:41:38;;;;;;;9.58;5.28;;;;;;;13.70;80.33;99789.94;4194229;83;21539;-84
2022/08/11 00:48:05;;;;;;;9.15;4.62;;;;;;;13.59;80.45;99789.80;4217318;83;21084;-84
2022/08/11 00:54:37;;;;;;;;;;;;;;;13.42;80.67;99784.11;4213723;82;21093;-84
2022/08/11 01:01:06;;;;;;;7.25;4.72;;;;;;;13.38;82.25;99775.02;4200751;83;20174;-84
2022/08/11 01:07:19;;;;;;;8.15;4.45;;;;;;;13.18;81.07;99773.59;4199685;83;20999;-84
2022/08/11 01:13:45;;;;;;;8.00;4.40;;;;;;;13.13;81.68;99766.46;4164285;83;21523;-84
2022/08/11 01:20:04;;;;;;;6.87;4.42;;;;;;;13.15;82.55;99768.84;4160625;84;21028;-84
2022/08/11 01:26:42;;;;;;;5.85;4.60;;;;;;;13.03;82.24;99779.47;4160977;84;21132;-84
2022/08/11 01:33:18;;;;;;;6.85;4.50;;;;;;;12.89;82.32;99782.59;4163918;84;21163;-84
2022/08/11 01:40:03;;;;;;;9.58;5.37;;;;;;;12.79;83.12;99770.86;4169958;84;21116;-83
2022/08/11 01:46:22;;;;;;;8.18;4.40;;;;;;;12.78;83.03;99763.78;4163773;84;21019;-83
2022/08/11 01:52:41;;;;;;;7.00;4.17;;;;;;;12.73;83.47;99763.53;4164266;84;22015;-83
2022/08/11 01:58:59;;;;;;;9.05;4.30;;;;;;;12.59;83.79;99762.72;4163748;84;22138;-83
2022/08/11 02:05:08;;;;;;;5.08;4.20;;;;;;;12.42;83.11;99783.83;4164963;84;21042;-84
2022/08/11 02:11:34;;;;;;;7.90;4.72;;;;;;;12.26;83.97;99779.65;4173621;82;21013;-84
2022/08/11 02:17:59;;;;;;;7.28;4.15;;;;;;;12.15;83.69;99780.05;4195140;83;21524;-84
2022/08/11 02:24:06;;;;;;;10.68;4.75;;;;;;;12.11;84.99;99773.13;4190210;83;21112;-84
2022/08/11 02:30:15;;;;;;;6.07;4.20;;;;;;;12.07;85.12;99771.48;4185907;83;21111;-83
2022/08/11 02:36:34;;;;;;;6.83;3.95;;;;;;;12.08;85.57;99773.85;4185550;84;20955;-84
2022/08/11 02:42:50;;;;;;;6.65;4.20;;;;;;;12.14;85.62;99771.02;4188906;84;21062;-84
2022/08/11 02:56:14;;;;;;;7.75;4.55;;;;;;;12.14;86.04;99770.20;4189884;83;21041;-84
2022/08/11 03:02:30;;;;;;;8.20;4.75;;;;;;;11.97;85.47;99770.70;4195575;83;21053;-84
2022/08/11 03:08:59;;;;;;;6.28;3.98;;;;;;;11.85;86.17;99775.00;4166507;83;21648;-84
2022/08/11 03:22:20;;;;;;;5.28;3.77;;;;;;;11.78;86.55;99773.48;4189315;82;20996;-85
2022/08/11 03:28:41;;;;;;;6.85;4.25;;;;;;;11.82;87.52;99762.81;4203969;83;21017;-84
2022/08/11 03:34:45;;;;;;;8.43;4.35;;;;;;;11.85;87.01;99778.55;4202055;83;21003;-84
2022/08/11 03:48:01;;;;;;;5.35;3.87;;;;;;;11.82;87.56;99779.84;4176551;85;21861;-85
2022/08/11 03:54:17;;;;;;;7.40;4.80;;;;;;;11.88;87.96;99773.70;4186893;83;21048;-84
2022/08/11 04:00:49;;;;;;;8.05;4.40;;;;;;;11.85;87.95;99775.80;4194473;83;20955;-84
2022/08/11 04:07:32;;;;;;;6.80;4.67;;;;;;;11.90;88.38;99767.25;4196075;83;21015;-84
2022/08/11 04:21:02;;;;;;;6.20;4.40;;;;;;;12.17;89.22;99759.30;4189592;83;21773;-83
2022/08/11 04:27:55;;;;;;;8.83;4.78;;;;;;;12.17;88.76;99763.98;4170634;84;20978;-84
2022/08/11 04:34:06;;;;;;;6.85;4.55;;;;;;;12.15;88.82;99771.81;4198574;84;21050;-84
2022/08/11 04:41:03;;;;;;;9.55;5.12;;;;;;;12.39;89.68;99772.78;4182559;84;21021;-82
2022/08/11 05:01:42;;;;;;;11.90;5.87;;;;;;;12.95;89.17;99787.37;4102968;85;21468;-84
2022/08/11 05:08:20;;;;;;;12.18;5.62;;;;;;;13.13;89.26;99787.08;4022776;85;21578;-84
2022/08/11 06:00:48;;;;;;;7.78;4.67;;;;;;;14.88;88.25;99804.59;4117832;85;21523;-85
2022/08/11 06:07:02;;;;;;;9.18;4.92;;;;;;;15.12;88.20;99811.44;4128896;84;21026;-84
2022/08/11 06:13:06;;;;;;;9.18;5.08;;;;;;;15.36;87.79;99814.93;4123349;85;21901;-84
2022/08/11 06:19:09;;;;;;;11.28;6.10;;;;;;;15.66;87.73;99812.13;4104925;85;21009;-86
2022/08/11 06:25:17;;;;;;;9.98;4.70;;;;;;;16.05;87.52;99821.11;4110683;84;21559;-85
2022/08/11 06:31:23;;;;;;;12.13;5.25;;;;;;;16.43;87.39;99805.96;4113852;84;21040;-84
2022/08/11 06:37:46;;;;;;;10.60;5.35;;;;;;;16.79;87.12;99806.19;4096369;85;21079;-85
2022/08/11 06:44:03;;;;;;;8.50;4.50;;;;;;;17.17;86.46;99801.77;4108113;85;21075;-84
2022/08/11 07:03:22;;;;;;;8.95;4.15;;;;;;;18.09;84.82;99792.46;4219086;83;21051;-86
2022/08/11 07:16:37;;;;;;;10.60;4.22;;;;;;;18.71;82.26;99794.60;4001264;87;21121;-84
2022/08/11 07:28:57;;;;;;;3.85;2.85;;;;;;;19.29;78.90;99783.34;4134906;85;20998;-86
2022/08/11 07:35:14;;;;;;;8.50;3.00;;;;;;;19.63;79.06;99784.09;4144370;84;21060;-85
2022/08/11 07:41:21;;;;;;;3.52;2.40;;;;;;;19.91;77.99;99780.14;4151221;85;21873;-85
2022/08/11 07:53:45;;;;;;;8.88;2.75;;;;;;;20.68;76.29;99783.73;4135469;83;20988;-85
2022/08/11 08:19:20;;;;;;;6.12;2.25;;;;;;;22.63;70.90;99776.65;4170165;84;21079;-85
2022/08/11 08:25:26;;;;;;;6.10;2.10;;;;;;;22.72;67.17;99771.86;4145030;84;21012;-85
2022/08/11 08:31:48;;;;;;;7.50;2.52;;;;;;;22.71;67.93;99768.88;4172482;84;21041;-86
2022/08/11 08:37:51;;;;;;;5.60;2.05;;;;;;;22.89;65.50;99768.61;4166988;85;21029;-88
2022/08/11 08:43:56;;;;;;;4.62;2.35;;;;;;;22.96;63.20;99760.03;4201018;84;21443;-84
2022/08/11 08:50:06;;;;;;;10.63;2.40;;;;;;;23.29;64.88;99747.41;4130614;84;21083;-87
2022/08/11 08:56:23;;;;;;;4.55;2.00;;;;;;;23.30;62.80;99741.37;4167460;84;21027;-86
2022/08/11 09:02:35;;;;;;;6.85;1.70;;;;;;;23.41;61.42;99740.46;4200027;84;21991;-86
2022/08/11 09:08:39;;;;;;;5.33;1.95;;;;;;;23.52;60.79;99743.73;4163961;84;21049;-87
2022/08/11 09:21:15;;;;;;;7.37;1.77;;;;;;;23.76;58.25;99737.23;4210046;83;21116;-86
2022/08/11 09:34:25;;;;;;;2.45;1.45;;;;;;;24.41;58.28;99719.55;4130498;86;21077;-87
2022/08/11 09:40:58;;;;;;;4.87;1.50;;;;;;;25.19;54.84;99711.22;4238952;83;21089;-86
2022/08/11 10:01:25;;;;;;;3.45;1.65;;;;;;;24.11;55.88;99703.36;3776139;90;21166;-86
2022/08/11 10:07:20;;;;;;;4.10;1.50;;;;;;;23.55;55.63;99694.54;3864633;90;21212;-86
2022/08/11 10:19:48;;;;;;;2.05;1.60;;;;;;;23.47;55.21;99696.77;3865653;87;77616;-90
2022/08/11 10:38:34;;;;;;;4.80;1.20;;;;;;;22.90;54.37;99669.66;4204822;83;21113;-89
2022/08/11 10:44:43;;;;;;;3.08;1.35;;;;;;;22.74;53.75;99664.76;4208911;83;21138;-94
2022/08/11 11:03:34;;;;;;;2.22;0.95;;;;;;;24.20;53.32;99627.14;4207246;83;21795;-92
2022/08/11 11:09:54;;;;;;;3.25;0.90;;;;;;;24.40;52.52;99623.47;4204350;83;21714;-90
2022/08/11 11:29:31;;;;;;;9.33;1.42;;;;;;;23.21;50.77;99613.50;4170285;84;22288;-90
2022/08/11 11:36:00;;;;;;;5.28;1.57;;;;;;;22.65;50.41;99641.66;4169147;84;21633;-93
2022/08/11 11:42:10;;;;;;;5.53;1.12;;;;;;;21.31;53.00;99651.08;4160820;84;21661;-89
2022/08/11 11:48:11;;;;;;;4.85;1.45;;;;;;;20.01;55.67;99652.14;4191022;83;21080;-91
2022/08/11 11:54:16;;;;;;;3.62;1.20;;;;;;;19.41;64.84;99607.88;4169527;84;21645;-91
2022/08/11 12:06:39;;;;;;;2.00;0.95;;;;;;;19.15;63.63;99599.50;4172452;84;21114;-94
2022/08/11 12:19:10;;;;;;;2.50;0.90;;;;;;;20.33;65.04;99588.31;4180443;83;21098;-89
2022/08/11 12:31:33;;;;;;;2.00;1.00;;;;;;;21.04;63.80;99565.59;4211210;83;21090;-89
2022/08/11 12:37:45;;;;;;;3.08;1.20;;;;;;;21.44;62.58;99578.19;4204209;83;21631;-90
2022/08/11 13:09:23;;;;;;;5.08;1.07;;;;;;;19.05;67.13;99567.13;4223012;83;21047;-89
2022/08/11 13:15:26;;;;;;;4.33;1.25;;;;;;;18.51;68.50;99621.70;4218102;83;21013;-92
2022/08/11 13:21:28;;;;;;;4.12;1.55;;;;;;;18.09;69.54;99645.03;4234702;82;21065;-90
2022/08/11 13:27:30;;;;;;;5.10;1.35;;;;;;;17.72;70.39;99646.92;4139278;82;9999660;-91
2022/08/11 13:33:32;;;;;;;2.20;1.22;;;;;;;17.40;72.57;99646.33;4247918;82;21043;-90
2022/08/11 13:39:36;;;;;;;3.50;1.77;;;;;;;17.14;72.91;99645.67;4264120;82;21078;-91
2022/08/11 13:45:39;;;;;;;22.32;1.90;;;;;;;17.10;74.05;99641.36;4229929;82;21050;-92
2022/08/11 14:19:37;;;;;;;4.72;2.17;;;;;;;17.42;78.89;99648.88;4153317;84;21590;-92
2022/08/11 14:26:22;;;;;;;6.08;1.77;;;;;;;17.33;80.00;99651.30;4155971;84;21057;-91
2022/08/11 14:31:57;;;;;;;3.47;1.50;;;;;;;17.26;81.02;99647.17;4035530;84;9999921;-90
2022/08/11 14:38:01;;;;;;;6.15;1.98;;;;;;;17.32;81.54;99644.17;4138351;84;21226;-92
2022/08/11 14:50:28;;;;;;;2.67;2.05;;;;;;;17.45;82.26;99641.17;4091707;85;21163;-93
2022/08/11 14:56:36;;;;;;;6.15;2.17;;;;;;;17.52;83.73;99632.04;4093855;85;21073;-89
2022/08/11 15:09:02;;;;;;;3.98;2.65;;;;;;;17.75;84.00;99610.11;4121619;85;22079;-91
2022/08/11 15:47:04;;;;;;;2.72;2.20;;;;;;;17.62;84.95;99604.27;4071411;86;22190;-89
2022/08/11 15:53:21;;;;;;;4.60;1.72;;;;;;;17.65;85.19;99603.45;4051044;87;21118;-90
2022/08/11 16:05:49;;;;;;;4.53;1.67;;;;;;;17.71;85.11;99587.98;4170584;84;21545;-90
2022/08/11 16:11:58;;;;;;;2.52;1.60;;;;;;;17.72;85.54;99588.19;4175476;83;21755;-91
2022/08/11 16:18:05;;;;;;;4.58;1.67;;;;;;;17.80;85.42;99577.83;4182415;84;21584;-92
2022/08/11 16:24:11;;;;;;;3.65;1.22;;;;;;;17.90;85.64;99581.88;4182431;84;21082;-91
2022/08/11 16:30:16;;;;;;;6.10;1.55;;;;;;;18.01;85.72;99574.88;4174883;84;21032;-90
2022/08/11 16:49:15;;;;;;;4.03;2.02;;;;;;;18.23;85.45;99551.27;4176299;84;21692;-90
2022/08/11 16:55:16;;;;;;;4.08;1.60;;;;;;;18.26;85.36;99548.47;4171044;84;21017;-90
2022/08/11 17:01:22;;;;;;;3.83;1.77;;;;;;;18.32;85.50;99551.59;4168005;84;21072;-90
2022/08/11 17:13:59;;;;;;;2.83;1.62;;;;;;;18.47;85.17;99557.98;4155123;84;21146;-91
2022/08/11 17:20:08;;;;;;;8.90;1.70;;;;;;;18.46;84.29;99564.70;4165523;84;21052;-89
2022/08/11 17:26:13;;;;;;;2.72;1.95;;;;;;;18.38;83.44;99561.84;4217604;83;21081;-91
2022/08/11 17:39:00;;;;;;;3.08;1.70;;;;;;;18.09;82.88;99564.69;4147318;84;21218;-94
2022/08/11 18:04:06;;;;;;;2.90;2.15;;;;;;;17.72;82.96;99585.42;4220976;83;21105;-91
